Perryville, Louisiana
Current Conditions -  °F | °C
As of 10:15 PM on Sunday 25 Jan 2015 (Local Time) from KBQP Reporting Station
Scattered Clouds Scattered Clouds  
Wind Chill: 51°   Ceiling: Unl
Heat Index: 51°   Visibility: 10mi
Dew Point: 32°   Wind: 7mph
Humidity: 48%   Direction: 300°WNW
Pressure: 29.99"   Gusts: NA
Location:  32.8721°N, 91.912°W
Report Text: KBQP 260415Z AUTO 30006KT 10SM SCT070 11/00 A2999 RMK AO2 T01050000
Loading
Personal Weather Stations






























Interactive Weather Map New forecast layout! Learn more

10-Day Weather Forecast

Advertisements
Track Severe Weather on mobile